Terminal Aerodrome Forecast
Issued by NWS Melbourne, FL

Home | Current Version | Previous Version | Text Only | Print | Product List | Glossary On
Versions: 1 2 3 4 5 6 7 8 9 10 11 12 13 14 15 16 17 18
732
FTUS42 KMLB 211736
TAFVRB
TAF
KVRB 211736Z 2118/2218 12011KT P6SM VCSH SCT025 BKN050
      TEMPO 2118/2120 3SM SHRA BKN025
     FM212100 16009KT P6SM SCT030 SCT050
     FM220100 VRB03KT P6SM SCT050
     FM220900 00000KT 5SM BR SCT250
     FM221400 04006KT P6SM SCT030 BKN250=

USA.gov is the U.S. government's official web portal to all federal, state and local government web resources and services.